Ms-hammaritha — PF2437 — position and weather

sailwx.info

Track history (hours):
 
Tides and Currents Weather Stations Pressure Air Temp Water Temp Dewpoint Dewpoint Depression Visibility Wind Speed Wind Dir Waves Ship Positions

Ms-hammaritha

Last reported at 2014-Nov-01 10:07 UTC. Time now 2014-Nov-01 13:59 UTC.
Position N 52°10' E 006°14'.

Length 86 m.

Type: Ship. MMSI: 244700691.

Date/timePositionNaut miles runAvg speedWind from/ knotsBaromVisibWave heightAir tempDewpointWater temp
2014-Nov-01 10:07N 52°10' E 006°14'2 3.7
2014-Nov-01 09:33N 52°10' E 006°17'6 5.7
2014-Nov-01 08:33N 52°10' E 006°27'11 3.5
2014-Nov-01 05:29N 52°15' E 006°42'3 3.7
2014-Nov-01 04:33N 52°15' E 006°48'0 0.0
2014-Nov-01 03:33N 52°15' E 006°48'0 0.0
2014-Nov-01 02:33N 52°15' E 006°48'0 0.0
2014-Nov-01 01:33N 52°15' E 006°48'0 0.0
2014-Nov-01 00:33N 52°15' E 006°48'0 0.0
2014-Oct-31 23:33N 52°15' E 006°48'0 0.0
2014-Oct-31 22:33N 52°15' E 006°48'0 0.0
2014-Oct-31 21:33N 52°15' E 006°48'0 0.0
2014-Oct-31 20:33N 52°15' E 006°48'2 2.2
2014-Oct-31 19:33N 52°15' E 006°44'6 3.0
2014-Oct-31 17:33N 52°20' E 006°38'2 2.5
2014-Oct-31 16:33N 52°22' E 006°38'0 0.0
2014-Oct-31 15:33N 52°22' E 006°38'0 0.0
2014-Oct-31 14:33N 52°22' E 006°38'0 0.0
2014-Oct-31 13:33N 52°22' E 006°38'0 0.0
2014-Oct-31 12:33N 52°22' E 006°38'0 0.0
2014-Oct-31 11:33N 52°22' E 006°38'0 0.0
2014-Oct-31 10:33N 52°22' E 006°38'0 0.0
2014-Oct-31 09:33N 52°22' E 006°38'0 0.0
2014-Oct-31 08:33N 52°22' E 006°38'0 0.0
2014-Oct-31 07:33N 52°22' E 006°38'0 0.0
2014-Oct-31 06:33N 52°22' E 006°38'0 0.0
2014-Oct-31 05:33N 52°22' E 006°38'0 0.0
2014-Oct-31 04:33N 52°22' E 006°38'0 0.0
2014-Oct-31 03:33N 52°22' E 006°38'0 0.0
2014-Oct-31 02:33N 52°22' E 006°38'0 0.0
2014-Oct-31 01:33N 52°22' E 006°38'0 0.0
2014-Oct-31 00:33N 52°22' E 006°38'0 0.0
2014-Oct-30 23:33N 52°22' E 006°38'1 1.0
2014-Oct-30 22:33N 52°21' E 006°37'11 3.8
2014-Oct-30 19:33N 52°11' E 006°29'5 5.1
2014-Oct-30 18:33N 52°10' E 006°21'4 4.1
2014-Oct-30 17:32N 52°10' E 006°14'23 3.6
2014-Oct-30 11:06N 51°51' E 005°51'1 0.6
2014-Oct-30 09:16N 51°52' E 005°50'0 0.0
2014-Oct-30 07:15N 51°52' E 005°50'0 0.0
2014-Oct-29 18:15N 51°52' E 005°50'6 3.4
2014-Oct-29 16:22N 51°56' E 005°58'16 3.7
2014-Oct-29 12:06N 52°10' E 006°11'3 4.6
2014-Oct-29 11:32N 52°12' E 006°09'  
2014-Oct-26 16:14N 52°15' E 006°10'  
2014-Oct-24 04:34N 51°56' E 005°58'44 6.8
2014-Oct-23 22:06N 51°22' E 006°42'3 4.8
2014-Oct-23 21:33N 51°20' E 006°43'6 6.2
2014-Oct-23 20:33N 51°14' E 006°44'5 5.4
2014-Oct-23 19:33N 51°09' E 006°50'15 6.9
2014-Oct-23 17:21N 50°55' E 006°58'109 4.9
2014-Oct-22 19:11N 49°23' E 008°30'5 7.5
2014-Oct-22 18:29N 49°18' E 008°29'8 9.1
2014-Oct-22 17:33N 49°11' E 008°23'10 9.9
2014-Oct-22 16:33N 49°01' E 008°18'1010.2
2014-Oct-22 15:32N 48°53' E 008°08'5 4.3
2014-Oct-22 14:20N 48°48' E 008°06'6 7.6
2014-Oct-22 13:33N 48°45' E 007°58'5 4.6
2014-Oct-22 12:33N 48°41' E 007°55'1 1.1
2014-Oct-22 11:33N 48°40' E 007°54'  
Track history (hours):
 
Tides and Currents Weather Stations Pressure Air Temp Water Temp Dewpoint Dewpoint Depression Visibility Wind Speed Wind Dir Waves Ship Positions

Ms-hammaritha

Last reported at 2014-Nov-01 10:07 UTC. Time now 2014-Nov-01 13:59 UTC.
Position N 52°10' E 006°14'.

Length 86 m.

Type: Ship. MMSI: 244700691.

Date/timePositionNaut miles runAvg speedWind from/ knotsBaromVisibWave heightAir tempDewpointWater temp
2014-Nov-01 10:07N 52°10' E 006°14'2 3.7
2014-Nov-01 09:33N 52°10' E 006°17'6 5.7
2014-Nov-01 08:33N 52°10' E 006°27'11 3.5
2014-Nov-01 05:29N 52°15' E 006°42'3 3.7
2014-Nov-01 04:33N 52°15' E 006°48'0 0.0
2014-Nov-01 03:33N 52°15' E 006°48'0 0.0
2014-Nov-01 02:33N 52°15' E 006°48'0 0.0
2014-Nov-01 01:33N 52°15' E 006°48'0 0.0
2014-Nov-01 00:33N 52°15' E 006°48'0 0.0
2014-Oct-31 23:33N 52°15' E 006°48'0 0.0
2014-Oct-31 22:33N 52°15' E 006°48'0 0.0
2014-Oct-31 21:33N 52°15' E 006°48'0 0.0
2014-Oct-31 20:33N 52°15' E 006°48'2 2.2
2014-Oct-31 19:33N 52°15' E 006°44'6 3.0
2014-Oct-31 17:33N 52°20' E 006°38'2 2.5
2014-Oct-31 16:33N 52°22' E 006°38'0 0.0
2014-Oct-31 15:33N 52°22' E 006°38'0 0.0
2014-Oct-31 14:33N 52°22' E 006°38'0 0.0
2014-Oct-31 13:33N 52°22' E 006°38'0 0.0
2014-Oct-31 12:33N 52°22' E 006°38'0 0.0
2014-Oct-31 11:33N 52°22' E 006°38'0 0.0
2014-Oct-31 10:33N 52°22' E 006°38'0 0.0
2014-Oct-31 09:33N 52°22' E 006°38'0 0.0
2014-Oct-31 08:33N 52°22' E 006°38'0 0.0
2014-Oct-31 07:33N 52°22' E 006°38'0 0.0
2014-Oct-31 06:33N 52°22' E 006°38'0 0.0
2014-Oct-31 05:33N 52°22' E 006°38'0 0.0
2014-Oct-31 04:33N 52°22' E 006°38'0 0.0
2014-Oct-31 03:33N 52°22' E 006°38'0 0.0
2014-Oct-31 02:33N 52°22' E 006°38'0 0.0
2014-Oct-31 01:33N 52°22' E 006°38'0 0.0
2014-Oct-31 00:33N 52°22' E 006°38'0 0.0
2014-Oct-30 23:33N 52°22' E 006°38'1 1.0
2014-Oct-30 22:33N 52°21' E 006°37'11 3.8
2014-Oct-30 19:33N 52°11' E 006°29'5 5.1
2014-Oct-30 18:33N 52°10' E 006°21'4 4.1
2014-Oct-30 17:32N 52°10' E 006°14'23 3.6
2014-Oct-30 11:06N 51°51' E 005°51'1 0.6
2014-Oct-30 09:16N 51°52' E 005°50'0 0.0
2014-Oct-30 07:15N 51°52' E 005°50'0 0.0
2014-Oct-29 18:15N 51°52' E 005°50'6 3.4
2014-Oct-29 16:22N 51°56' E 005°58'16 3.7
2014-Oct-29 12:06N 52°10' E 006°11'3 4.6
2014-Oct-29 11:32N 52°12' E 006°09'  
2014-Oct-26 16:14N 52°15' E 006°10'  
2014-Oct-24 04:34N 51°56' E 005°58'44 6.8
2014-Oct-23 22:06N 51°22' E 006°42'3 4.8
2014-Oct-23 21:33N 51°20' E 006°43'6 6.2
2014-Oct-23 20:33N 51°14' E 006°44'5 5.4
2014-Oct-23 19:33N 51°09' E 006°50'15 6.9
2014-Oct-23 17:21N 50°55' E 006°58'109 4.9
2014-Oct-22 19:11N 49°23' E 008°30'5 7.5
2014-Oct-22 18:29N 49°18' E 008°29'8 9.1
2014-Oct-22 17:33N 49°11' E 008°23'10 9.9
2014-Oct-22 16:33N 49°01' E 008°18'1010.2
2014-Oct-22 15:32N 48°53' E 008°08'5 4.3
2014-Oct-22 14:20N 48°48' E 008°06'6 7.6
2014-Oct-22 13:33N 48°45' E 007°58'5 4.6
2014-Oct-22 12:33N 48°41' E 007°55'1 1.1
2014-Oct-22 11:33N 48°40' E 007°54'  

Dump ship's entire track history